Time,TemperatureF,DewpointF,PressureIn,WindDirection,WindDirectionDegrees,WindSpeedMPH,WindSpeedGustMPH,Humidity,HourlyPrecipIn,Conditions,Clouds,dailyrainin,SolarRadiationWatts/m^2,SoftwareType,DateUTC
2018-01-22 00:00:00,9.0,4.0,-100.00,North,-9999,-999.9,-999.0,79,-99.99,,,-99.99,0.000000,,2018-01-22 07:00:00,
2018-01-22 02:00:00,9.0,4.0,-100.00,North,-9999,-999.9,-999.0,79,-99.99,,,-99.99,0.000000,,2018-01-22 09:00:00,
2018-01-22 02:37:00,9.0,4.0,-100.00,North,-9999,-999.9,-999.0,79,-99.99,,,-99.99,0.000000,,2018-01-22 09:37:00,
2018-01-22 03:00:00,10.0,4.0,-100.00,North,-9999,-999.9,-999.0,78,-99.99,,,-99.99,0.000000,,2018-01-22 10:00:00,
2018-01-22 03:35:00,10.0,4.0,-100.00,North,-9999,-999.9,-999.0,78,-99.99,,,-99.99,0.000000,,2018-01-22 10:35:00,
2018-01-22 04:35:00,9.0,4.0,-100.00,North,-9999,-999.9,-999.0,77,-99.99,,,-99.99,0.000000,,2018-01-22 11:35:00,
2018-01-22 05:00:00,10.0,4.0,-100.00,North,-9999,-999.9,-999.0,78,-99.99,,,-99.99,0.000000,,2018-01-22 12:00:00,
2018-01-22 05:35:00,10.0,4.0,-100.00,North,-9999,-999.9,-999.0,78,-99.99,,,-99.99,0.000000,,2018-01-22 12:35:00,
2018-01-22 06:00:00,12.0,5.0,-100.00,North,-9999,-999.9,-999.0,74,-99.99,,,-99.99,0.000000,,2018-01-22 13:00:00,
2018-01-22 06:35:00,12.0,5.0,-100.00,North,-9999,-999.9,-999.0,74,-99.99,,,-99.99,0.000000,,2018-01-22 13:35:00,
2018-01-22 07:00:00,12.0,5.0,-100.00,North,-9999,-999.9,-999.0,72,-99.99,,,-99.99,0.000000,,2018-01-22 14:00:00,
2018-01-22 07:34:00,12.0,5.0,-100.00,North,-9999,-999.9,-999.0,72,-99.99,,,-99.99,0.000000,,2018-01-22 14:34:00,
2018-01-22 08:00:00,11.0,5.0,-100.00,North,-9999,-999.9,-999.0,78,-99.99,,,-99.99,0.000000,,2018-01-22 15:00:00,
2018-01-22 08:35:00,11.0,5.0,-100.00,North,-9999,-999.9,-999.0,78,-99.99,,,-99.99,0.000000,,2018-01-22 15:35:00,
2018-01-22 09:00:00,15.0,7.0,-100.00,North,-9999,-999.9,-999.0,72,-99.99,,,-99.99,0.000000,,2018-01-22 16:00:00,
2018-01-22 09:35:00,15.0,7.0,-100.00,North,-9999,-999.9,-999.0,72,-99.99,,,-99.99,0.000000,,2018-01-22 16:35:00,
2018-01-22 10:00:00,19.0,13.0,-100.00,North,-9999,-999.9,-999.0,74,-99.99,,,-99.99,0.000000,,2018-01-22 17:00:00,
2018-01-22 10:35:00,19.0,13.0,-100.00,North,-9999,-999.9,-999.0,74,-99.99,,,-99.99,0.000000,,2018-01-22 17:35:00,
2018-01-22 11:00:00,22.0,16.0,-100.00,North,-9999,-999.9,-999.0,78,-99.99,,,-99.99,0.000000,,2018-01-22 18:00:00,
2018-01-22 11:35:00,22.0,16.0,-100.00,North,-9999,-999.9,-999.0,78,-99.99,,,-99.99,0.000000,,2018-01-22 18:35:00,
2018-01-22 12:00:00,25.0,14.0,-100.00,North,-9999,-999.9,-999.0,62,-99.99,,,-99.99,0.000000,,2018-01-22 19:00:00,
2018-01-22 12:34:00,25.0,14.0,-100.00,North,-9999,-999.9,-999.0,62,-99.99,,,-99.99,0.000000,,2018-01-22 19:34:00,
2018-01-22 13:00:00,25.0,19.0,-100.00,North,-9999,-999.9,-999.0,78,-99.99,,,-99.99,0.000000,,2018-01-22 20:00:00,
2018-01-22 13:34:00,25.0,19.0,-100.00,North,-9999,-999.9,-999.0,78,-99.99,,,-99.99,0.000000,,2018-01-22 20:34:00,
2018-01-22 14:00:00,23.0,16.0,-100.00,North,-9999,-999.9,-999.0,76,-99.99,,,-99.99,0.000000,,2018-01-22 21:00:00,
2018-01-22 14:35:00,23.0,16.0,-100.00,North,-9999,-999.9,-999.0,76,-99.99,,,-99.99,0.000000,,2018-01-22 21:35:00,
2018-01-22 15:00:00,22.0,18.0,-100.00,North,-9999,-999.9,-999.0,85,-99.99,,,-99.99,0.000000,,2018-01-22 22:00:00,
2018-01-22 15:35:00,22.0,18.0,-100.00,North,-9999,-999.9,-999.0,85,-99.99,,,-99.99,0.000000,,2018-01-22 22:35:00,
2018-01-22 16:00:00,22.0,19.0,-100.00,North,-9999,-999.9,-999.0,89,-99.99,,,-99.99,0.000000,,2018-01-22 23:00:00,
2018-01-22 16:35:00,22.0,19.0,-100.00,North,-9999,-999.9,-999.0,89,-99.99,,,-99.99,0.000000,,2018-01-22 23:35:00,
2018-01-22 18:00:00,22.0,20.0,-100.00,North,-9999,-999.9,-999.0,89,-99.99,,,-99.99,0.000000,,2018-01-23 01:00:00,
2018-01-22 18:35:00,22.0,20.0,-100.00,North,-9999,-999.9,-999.0,89,-99.99,,,-99.99,0.000000,,2018-01-23 01:35:00,
2018-01-22 19:00:00,22.0,20.0,-100.00,North,-9999,-999.9,-999.0,91,-99.99,,,-99.99,0.000000,,2018-01-23 02:00:00,
2018-01-22 19:35:00,22.0,20.0,-100.00,North,-9999,-999.9,-999.0,91,-99.99,,,-99.99,0.000000,,2018-01-23 02:35:00,
2018-01-22 20:00:00,22.0,20.0,-100.00,North,-9999,-999.9,-999.0,91,-99.99,,,-99.99,0.000000,,2018-01-23 03:00:00,
2018-01-22 21:00:00,23.0,21.0,-100.00,North,-9999,-999.9,-999.0,91,-99.99,,,-99.99,0.000000,,2018-01-23 04:00:00,